This is the latest recevied weather packets stored in our database for station/object OE-11152. If no packets are shown the sender has not sent any weather packets the latest 10 day(s).
| Time | Temp. | Humidity | Pressure | Rain* | Wind** | Luminosity | Snow |
|---|---|---|---|---|---|---|---|
| 1787669718 | 17.22° C | 79% | 1014.6 hPa | 0 mm | - | 108 W/m² | - |
| 1787668891 | 17.22° C | 79% | 1014.5 hPa | 0 mm | - | 101 W/m² | - |
| 1787668518 | 17.78° C | 79% | 1014.4 hPa | 0 mm | - | 108 W/m² | - |
| 1787667917 | 17.78° C | 79% | 1014.4 hPa | 0 mm | - | 115 W/m² | - |
| 1787667091 | 17.78° C | 79% | 1014.3 hPa | 0 mm | - | 162 W/m² | - |
| 1787666718 | 17.78° C | 78% | 1014.2 hPa | 0 mm | - | 182 W/m² | - |
| 1787666118 | 17.78° C | 78% | 1014 hPa | 0 mm | - | 182 W/m² | - |
| 1787665291 | 17.78° C | 78% | 1014.1 hPa | 0 mm | - | 175 W/m² | - |
| 1787664918 | 17.78° C | 79% | 1014 hPa | 0 mm | - | 128 W/m² | - |
| 1787664318 | 17.22° C | 79% | 1014 hPa | 0 mm | - | 128 W/m² | - |
| 1787663491 | 17.22° C | 82% | 1013.8 hPa | 0 mm | - | 115 W/m² | - |
| 1787663118 | 17.22° C | 81% | 1013.8 hPa | 0 mm | - | 202 W/m² | - |
| 1787662518 | 17.22° C | 81% | 1013.7 hPa | 0 mm | - | 249 W/m² | - |
| 1787661691 | 17.22° C | 82% | 1013.7 hPa | 0 mm | - | 223 W/m² | - |
| 1787661318 | 17.22° C | 80% | 1013.6 hPa | 0 mm | - | 283 W/m² | - |
| 1787660718 | 17.22° C | 80% | 1013.6 hPa | 0 mm | - | 243 W/m² | - |
| 1787660130 | 17.22° C | 80% | 1013.7 hPa | 0 mm | - | 202 W/m² | - |
| 1787659518 | 17.22° C | 81% | 1013.6 hPa | 0 mm | - | 169 W/m² | - |
| 1787658918 | 17.22° C | 79% | 1013.5 hPa | 0 mm | - | 135 W/m² | - |
| 1787658091 | 17.22° C | 77% | 1013.4 hPa | 0 mm | - | 135 W/m² | - |
| 1787657717 | 17.22° C | 77% | 1013.3 hPa | 0 mm | - | 148 W/m² | - |
| 1787657117 | 17.22° C | 75% | 1013.3 hPa | 0 mm | - | 148 W/m² | - |
| 1787654491 | 18.33° C | 70% | 1012.5 hPa | 0 mm | - | 196 W/m² | - |
| 1787654113 | 18.33° C | 70% | 1012.5 hPa | 0 mm | - | 223 W/m² | - |
| 1787652317 | 18.33° C | 69% | 1012 hPa | 0 mm | - | 357 W/m² | - |
* Rain latest hour (hover to see other rain measurements)
** Current wind speed in m/s (hover to see current wind gust speed)